Bronnicy, Russia
Current Conditions -  °F | °C
As of 2:30 AM on Sunday 26 Oct 2014 (Local Time) from UUDD Reporting Station
Clear Clear  
Wind Chill: 15°   Ceiling: Unl
Heat Index: 23°   Visibility: 6mi
Dew Point: 14°   Wind: 7mph
Humidity: 68%   Direction: 210°SSW
Pressure: 30.59"   Gusts: NA
Location:  55.43°N, 38.27°E
Report Text: UUDD 252330Z 21003MPS 180V240 CAVOK M05/M10 Q1036 14010095NOSIG
Loading
Personal Weather Stations






























Interactive Weather Map
Tropical Storm Tracking
New forecast layout! Learn more

10-Day Weather Forecast

Advertisements
Track Severe Weather on mobile